createdAt,value
2023-01-13T00:02:16.304Z,5.18
2023-01-13T00:04:43.163Z,3.58
2023-01-13T00:07:10.018Z,3.63
2023-01-13T00:09:36.765Z,4.13
2023-01-13T00:12:03.512Z,3.97
2023-01-13T00:14:33.404Z,3.15
2023-01-13T00:17:00.193Z,3.72
2023-01-13T00:19:26.877Z,3.28
2023-01-13T00:21:53.620Z,3.70
2023-01-13T00:24:20.325Z,3.35
2023-01-13T00:26:47.160Z,3.67
2023-01-13T00:29:13.946Z,3.33
2023-01-13T00:31:41.394Z,3.88
2023-01-13T00:34:08.099Z,2.80
2023-01-13T00:36:34.947Z,3.90
2023-01-13T00:39:01.774Z,3.20
2023-01-13T00:41:29.206Z,2.70
2023-01-13T00:43:55.985Z,2.75
2023-01-13T00:46:23.287Z,2.67
2023-01-13T00:48:51.586Z,2.67
2023-01-13T00:51:18.392Z,2.50
2023-01-13T00:53:45.111Z,2.22
2023-01-13T00:56:14.386Z,2.33
2023-01-13T00:58:41.142Z,2.70
2023-01-13T01:01:08.111Z,2.55
2023-01-13T01:03:34.909Z,2.75
2023-01-13T01:06:01.650Z,2.20
2023-01-13T01:08:28.409Z,2.65
2023-01-13T01:10:55.127Z,2.28
2023-01-13T01:13:21.842Z,2.22
2023-01-13T01:15:48.726Z,2.95
2023-01-13T01:18:15.453Z,2.30
2023-01-13T01:20:42.160Z,2.55
2023-01-13T01:23:08.965Z,3.03
2023-01-13T01:25:35.741Z,2.83
2023-01-13T01:28:02.457Z,4.07
2023-01-13T01:30:29.176Z,2.90
2023-01-13T01:32:57.333Z,2.63
2023-01-13T01:35:24.069Z,2.88
2023-01-13T01:37:50.787Z,2.60
2023-01-13T01:40:17.495Z,2.88
2023-01-13T01:43:02.835Z,2.65
2023-01-13T01:45:30.642Z,2.90
2023-01-13T01:47:57.407Z,2.63
2023-01-13T01:50:24.163Z,3.75
2023-01-13T01:52:50.909Z,2.75
2023-01-13T01:55:17.616Z,3.53
2023-01-13T01:57:44.334Z,3.35
2023-01-13T02:00:11.069Z,2.65
2023-01-13T02:02:40.733Z,3.25
2023-01-13T02:05:07.523Z,3.13
2023-01-13T02:07:34.275Z,3.22
2023-01-13T02:10:01.004Z,3.67
2023-01-13T02:12:30.554Z,3.55
2023-01-13T02:14:57.294Z,4.22
2023-01-13T02:17:24.018Z,3.38
2023-01-13T02:19:50.746Z,3.70
2023-01-13T02:22:17.482Z,3.35
2023-01-13T02:24:56.636Z,3.10
2023-01-13T02:27:23.736Z,2.95
2023-01-13T02:30:09.494Z,2.63
2023-01-13T02:32:36.235Z,2.92
2023-01-13T02:35:03.259Z,3.00
2023-01-13T02:37:29.962Z,3.40
2023-01-13T02:39:56.689Z,3.30
2023-01-13T02:42:42.227Z,4.30
2023-01-13T02:45:09.021Z,3.50
2023-01-13T02:47:35.727Z,3.00
2023-01-13T02:50:02.455Z,3.72
2023-01-13T02:52:29.195Z,3.60
2023-01-13T02:54:55.921Z,3.30
2023-01-13T02:57:22.691Z,3.67
2023-01-13T02:59:49.429Z,3.33
2023-01-13T03:02:16.367Z,2.75
2023-01-13T03:04:43.205Z,3.63
2023-01-13T03:07:09.891Z,3.10
2023-01-13T03:09:36.568Z,3.22
2023-01-13T03:12:03.381Z,3.78
2023-01-13T03:14:30.083Z,4.20
2023-01-13T03:16:56.778Z,2.83
2023-01-13T03:19:24.869Z,3.80
2023-01-13T03:21:51.600Z,3.15
2023-01-13T03:24:18.348Z,3.42
2023-01-13T03:26:45.038Z,3.90
2023-01-13T03:29:11.948Z,3.60
2023-01-13T03:31:38.750Z,3.90
2023-01-13T03:34:05.617Z,3.60
2023-01-13T03:36:32.359Z,4.13
2023-01-13T03:38:59.113Z,3.13
2023-01-13T03:41:25.809Z,3.42
2023-01-13T03:44:28.011Z,3.40
2023-01-13T03:46:54.709Z,3.33
2023-01-13T03:49:21.425Z,3.58
2023-01-13T03:51:48.207Z,4.22
2023-01-13T03:54:15.581Z,3.38
2023-01-13T03:56:42.255Z,3.08
2023-01-13T03:59:08.985Z,3.63
2023-01-13T04:01:35.806Z,3.40
2023-01-13T04:04:02.735Z,4.22
2023-01-13T04:06:29.528Z,3.40
2023-01-13T04:08:56.361Z,3.63
2023-01-13T04:11:23.095Z,3.80
2023-01-13T04:13:49.807Z,3.45
2023-01-13T04:16:16.583Z,4.07
2023-01-13T04:18:43.311Z,3.30
2023-01-13T04:21:10.036Z,3.78
2023-01-13T04:23:36.841Z,4.30
2023-01-13T04:26:03.525Z,3.92
2023-01-13T04:28:30.233Z,3.90
2023-01-13T04:30:56.982Z,3.50
2023-01-13T04:33:23.747Z,4.47
2023-01-13T04:35:50.481Z,3.60
2023-01-13T04:38:17.151Z,3.53
2023-01-13T04:40:43.839Z,3.78
2023-01-13T04:43:10.567Z,4.53
2023-01-13T04:45:37.335Z,3.72
2023-01-13T04:48:04.041Z,3.90
2023-01-13T04:50:30.764Z,3.33
2023-01-13T04:52:57.542Z,3.75
2023-01-13T04:55:24.268Z,3.45
2023-01-13T04:57:51.018Z,4.60
2023-01-13T05:00:17.802Z,3.88
2023-01-13T05:02:44.554Z,3.50
2023-01-13T05:05:11.306Z,3.00
2023-01-13T05:07:38.033Z,4.20
2023-01-13T05:10:04.993Z,3.67
2023-01-13T05:12:50.181Z,3.50
2023-01-13T05:15:35.711Z,3.70
2023-01-13T05:18:02.446Z,3.75
2023-01-13T05:20:29.208Z,3.10
2023-01-13T05:23:14.552Z,3.40
2023-01-13T05:25:44.002Z,3.67
2023-01-13T05:28:10.931Z,3.33
2023-01-13T05:30:38.043Z,3.50
2023-01-13T05:33:04.727Z,4.00
2023-01-13T05:35:31.470Z,3.60
2023-01-13T05:37:58.166Z,3.83
2023-01-13T05:40:43.393Z,3.85
2023-01-13T05:43:25.288Z,2.80
2023-01-13T05:45:52.114Z,3.42
2023-01-13T05:48:19.200Z,4.43
2023-01-13T05:50:46.107Z,3.25
2023-01-13T05:53:12.895Z,2.80
2023-01-13T05:55:39.793Z,3.30
2023-01-13T05:58:06.449Z,3.28
2023-01-13T06:00:33.185Z,2.72
2023-01-13T06:02:59.900Z,2.85
2023-01-13T06:05:26.697Z,2.72
2023-01-13T06:07:53.368Z,3.10
2023-01-13T06:10:20.038Z,2.58
2023-01-13T06:12:46.759Z,2.80
2023-01-13T06:15:13.447Z,3.50
2023-01-13T06:17:40.133Z,3.05
2023-01-13T06:20:09.233Z,3.42
2023-01-13T06:22:36.528Z,3.50
2023-01-13T06:25:03.326Z,2.65
2023-01-13T06:27:30.359Z,3.00
2023-01-13T06:29:57.276Z,3.08
2023-01-13T06:32:23.991Z,4.00
2023-01-13T06:34:50.671Z,4.15
2023-01-13T06:37:18.043Z,3.72
2023-01-13T06:39:45.013Z,4.28
2023-01-13T06:42:30.539Z,3.63
2023-01-13T06:44:57.249Z,3.50
2023-01-13T06:47:24.036Z,4.28
2023-01-13T06:49:50.761Z,3.60
2023-01-13T06:52:17.497Z,3.85
2023-01-13T06:54:44.213Z,3.95
2023-01-13T06:57:10.902Z,4.15
2023-01-13T06:59:37.652Z,3.53
2023-01-13T07:02:04.534Z,3.53
2023-01-13T07:04:31.421Z,3.58
2023-01-13T07:06:58.160Z,3.53
2023-01-13T07:09:24.849Z,3.70
2023-01-13T07:11:52.848Z,3.17
2023-01-13T07:14:52.130Z,3.25
2023-01-13T07:17:25.152Z,3.63
2023-01-13T07:19:52.189Z,3.55
2023-01-13T07:22:18.971Z,3.10
2023-01-13T07:24:45.691Z,3.55
2023-01-13T07:27:12.536Z,3.50
2023-01-13T07:29:39.767Z,3.63
2023-01-13T07:32:07.828Z,3.53
2023-01-13T07:34:34.632Z,3.25
2023-01-13T07:37:01.344Z,3.80
2023-01-13T07:39:28.093Z,3.38
2023-01-13T07:42:13.477Z,7.90
2023-01-13T07:44:41.192Z,3.50
2023-01-13T07:47:10.465Z,4.13
2023-01-13T07:49:37.195Z,3.53
2023-01-13T07:52:04.104Z,3.70
2023-01-13T07:54:40.283Z,4.50
2023-01-13T07:57:07.586Z,4.38
2023-01-13T07:59:34.302Z,4.22
2023-01-13T08:02:01.257Z,3.67
2023-01-13T08:04:28.112Z,3.38
2023-01-13T08:06:55.259Z,3.78
2023-01-13T08:09:22.004Z,3.38
2023-01-13T08:12:08.663Z,3.63
2023-01-13T08:14:35.589Z,3.40
2023-01-13T08:17:02.349Z,2.97
2023-01-13T08:19:29.028Z,4.00
2023-01-13T08:21:55.732Z,3.70
2023-01-13T08:24:22.554Z,3.55
2023-01-13T08:26:49.270Z,3.65
2023-01-13T08:29:15.999Z,3.78
2023-01-13T08:31:42.744Z,3.55
2023-01-13T08:34:09.498Z,3.67
2023-01-13T08:36:36.271Z,3.35
2023-01-13T08:39:03.004Z,3.72
2023-01-13T08:41:48.402Z,3.25
2023-01-13T08:44:15.280Z,2.95
2023-01-13T08:46:42.027Z,3.42
2023-01-13T08:49:08.779Z,3.58
2023-01-13T08:51:35.514Z,3.55
2023-01-13T08:54:02.489Z,3.78
2023-01-13T08:56:29.253Z,4.10
2023-01-13T08:58:56.006Z,3.53
2023-01-13T09:01:22.809Z,3.92
2023-01-13T09:03:49.630Z,3.42
2023-01-13T09:06:16.292Z,3.30
2023-01-13T09:08:43.026Z,3.80
2023-01-13T09:11:28.291Z,3.65
2023-01-13T09:13:55.012Z,4.28
2023-01-13T09:16:21.722Z,3.17
2023-01-13T09:18:48.448Z,3.90
2023-01-13T09:21:15.183Z,3.47
2023-01-13T09:23:41.925Z,3.42
2023-01-13T09:26:08.649Z,3.13
2023-01-13T09:28:35.346Z,3.95
2023-01-13T09:31:02.171Z,3.88
2023-01-13T09:33:47.620Z,3.55
2023-01-13T09:36:14.384Z,3.75
2023-01-13T09:38:41.119Z,3.50
2023-01-13T09:41:27.935Z,4.00
2023-01-13T09:43:54.660Z,3.85
2023-01-13T09:46:40.317Z,3.00
2023-01-13T09:49:08.085Z,3.35
2023-01-13T09:51:35.266Z,3.30
2023-01-13T09:54:02.245Z,3.70
2023-01-13T09:56:28.979Z,3.35
2023-01-13T09:58:55.745Z,3.13
2023-01-13T10:01:22.489Z,2.95
2023-01-13T10:03:49.509Z,3.03
2023-01-13T10:06:16.705Z,3.33
2023-01-13T10:08:43.435Z,3.45
2023-01-13T10:11:29.015Z,3.47
2023-01-13T10:13:55.746Z,3.00
2023-01-13T10:16:22.493Z,2.70
2023-01-13T10:18:49.252Z,3.13
2023-01-13T10:21:16.009Z,2.92
2023-01-13T10:23:42.810Z,2.63
2023-01-13T10:26:09.598Z,2.60
2023-01-13T10:28:36.363Z,2.80
2023-01-13T10:31:03.080Z,3.50
2023-01-13T10:33:29.911Z,3.40
2023-01-13T10:35:56.684Z,3.50
2023-01-13T10:38:23.475Z,3.88
2023-01-13T10:40:50.194Z,3.47
2023-01-13T10:43:17.151Z,3.85
2023-01-13T10:45:43.886Z,4.18
2023-01-13T10:48:10.614Z,4.75
2023-01-13T10:50:37.348Z,6.53
2023-01-13T10:53:04.163Z,8.68
2023-01-13T10:55:32.152Z,4.10
2023-01-13T10:57:58.889Z,3.97
2023-01-13T11:00:25.605Z,3.30
2023-01-13T11:02:52.344Z,3.35
2023-01-13T11:05:19.113Z,4.20
2023-01-13T11:07:45.886Z,4.70
2023-01-13T11:10:12.553Z,3.78
2023-01-13T11:12:39.311Z,4.03
2023-01-13T11:15:06.125Z,3.75
2023-01-13T11:17:32.861Z,3.63
2023-01-13T11:19:59.631Z,3.63
2023-01-13T11:22:26.356Z,3.15
2023-01-13T11:24:53.117Z,3.17
2023-01-13T11:27:20.032Z,3.40
2023-01-13T11:29:46.708Z,2.97
2023-01-13T11:32:13.594Z,3.13
2023-01-13T11:34:40.353Z,3.20
2023-01-13T11:37:07.187Z,3.22
2023-01-13T11:39:33.969Z,3.25
2023-01-13T11:42:19.215Z,3.28
2023-01-13T11:44:45.928Z,2.85
2023-01-13T11:47:12.665Z,2.70
2023-01-13T11:49:39.529Z,3.22
2023-01-13T11:52:06.531Z,2.88
2023-01-13T11:54:34.110Z,2.67
2023-01-13T11:57:02.080Z,2.90
2023-01-13T11:59:28.765Z,2.90
2023-01-13T12:01:55.541Z,3.20
2023-01-13T12:04:22.365Z,3.08
2023-01-13T12:06:49.457Z,2.58
2023-01-13T12:09:16.215Z,3.13
2023-01-13T12:12:01.472Z,3.08
2023-01-13T12:14:28.252Z,3.70
2023-01-13T12:16:55.035Z,3.17
2023-01-13T12:19:21.808Z,2.58
2023-01-13T12:21:48.559Z,3.50
2023-01-13T12:24:15.275Z,2.63
2023-01-13T12:26:42.079Z,2.72
2023-01-13T12:29:08.805Z,2.67
2023-01-13T12:31:35.541Z,2.97
2023-01-13T12:34:02.247Z,3.03
2023-01-13T12:36:29.002Z,3.47
2023-01-13T12:38:55.682Z,3.15
2023-01-13T12:41:24.637Z,3.00
2023-01-13T12:44:10.171Z,3.22
2023-01-13T12:46:36.945Z,2.75
2023-01-13T12:49:04.800Z,2.95
2023-01-13T12:51:35.803Z,3.22
2023-01-13T12:54:02.519Z,2.25
2023-01-13T12:56:29.529Z,2.72
2023-01-13T12:58:56.222Z,3.05
2023-01-13T13:01:22.974Z,4.60
2023-01-13T13:03:49.920Z,3.30
2023-01-13T13:06:16.709Z,2.90
2023-01-13T13:08:43.409Z,2.85
2023-01-13T13:11:30.097Z,3.13
2023-01-13T13:13:56.884Z,2.78
2023-01-13T13:16:23.673Z,2.80
2023-01-13T13:18:50.469Z,3.40
2023-01-13T13:21:17.159Z,3.25
2023-01-13T13:23:49.771Z,3.10
2023-01-13T13:26:16.745Z,2.70
2023-01-13T13:28:43.416Z,3.65
2023-01-13T13:31:10.159Z,2.80
2023-01-13T13:33:39.004Z,3.08
2023-01-13T13:36:05.790Z,2.72
2023-01-13T13:38:51.369Z,2.60
2023-01-13T13:41:37.237Z,3.28
2023-01-13T13:44:22.808Z,3.25
2023-01-13T13:46:49.879Z,2.58
2023-01-13T13:49:16.608Z,2.33
2023-01-13T13:51:45.161Z,2.25
2023-01-13T13:54:12.085Z,2.70
2023-01-13T13:56:38.761Z,3.20
2023-01-13T13:59:05.512Z,2.45
2023-01-13T14:01:32.341Z,2.67
2023-01-13T14:03:59.063Z,2.88
2023-01-13T14:06:25.797Z,3.00
2023-01-13T14:08:52.455Z,2.97
2023-01-13T14:11:20.588Z,2.50
2023-01-13T14:13:47.312Z,2.50
2023-01-13T14:16:13.979Z,3.75
2023-01-13T14:18:40.725Z,3.47
2023-01-13T14:21:07.475Z,3.08
2023-01-13T14:23:34.306Z,2.67
2023-01-13T14:26:01.005Z,2.30
2023-01-13T14:28:27.985Z,3.40
2023-01-13T14:30:54.697Z,3.53
2023-01-13T14:33:21.482Z,3.10
2023-01-13T14:35:48.167Z,2.80
2023-01-13T14:38:16.044Z,2.88
2023-01-13T14:40:45.775Z,3.13
2023-01-13T14:43:12.479Z,2.53
2023-01-13T14:45:39.194Z,2.92
2023-01-13T14:48:05.910Z,3.10
2023-01-13T14:50:33.941Z,2.20
2023-01-13T14:53:00.820Z,2.38
2023-01-13T14:55:27.627Z,2.40
2023-01-13T14:57:54.361Z,2.42
2023-01-13T15:00:21.393Z,2.22
2023-01-13T15:02:48.297Z,2.13
2023-01-13T15:05:15.060Z,3.15
2023-01-13T15:07:41.761Z,2.47
2023-01-13T15:10:08.420Z,2.70
2023-01-13T15:12:35.897Z,3.03
2023-01-13T15:15:03.578Z,2.53
2023-01-13T15:17:30.366Z,3.00
2023-01-13T15:19:57.097Z,2.95
2023-01-13T15:22:23.961Z,2.97
2023-01-13T15:24:51.126Z,2.00
2023-01-13T15:27:17.879Z,2.20
2023-01-13T15:29:44.568Z,2.45
2023-01-13T15:32:11.288Z,2.40
2023-01-13T15:34:38.203Z,2.45
2023-01-13T15:37:04.922Z,2.67
2023-01-13T15:39:31.822Z,2.35
2023-01-13T15:42:17.420Z,2.00
2023-01-13T15:45:02.933Z,2.45
2023-01-13T15:47:29.663Z,2.20
2023-01-13T15:49:56.383Z,2.60
2023-01-13T15:52:23.140Z,2.30
2023-01-13T15:54:49.951Z,2.03
2023-01-13T15:57:16.666Z,2.65
2023-01-13T15:59:43.433Z,3.00
2023-01-13T16:02:10.127Z,2.83
2023-01-13T16:04:36.849Z,2.90
2023-01-13T16:07:03.540Z,3.00
2023-01-13T16:09:30.290Z,3.22
2023-01-13T16:11:57.326Z,3.33
2023-01-13T16:14:33.104Z,3.63
2023-01-13T16:16:59.907Z,3.40
2023-01-13T16:19:26.565Z,4.30
2023-01-13T16:21:53.288Z,3.95
2023-01-13T16:24:20.028Z,4.75
2023-01-13T16:26:46.734Z,3.03
2023-01-13T16:29:13.465Z,3.10
2023-01-13T16:31:40.268Z,3.55
2023-01-13T16:34:07.150Z,4.20
2023-01-13T16:36:33.874Z,4.10
2023-01-13T16:39:00.609Z,4.32
2023-01-13T16:41:27.400Z,3.47
2023-01-13T16:43:54.150Z,3.20
2023-01-13T16:46:20.897Z,3.83
2023-01-13T16:48:47.645Z,3.10
2023-01-13T16:51:14.444Z,3.80
2023-01-13T16:53:41.195Z,3.35
2023-01-13T16:56:07.904Z,3.65
2023-01-13T16:58:34.657Z,3.30
2023-01-13T17:01:01.471Z,4.18
2023-01-13T17:03:29.896Z,4.00
2023-01-13T17:05:56.637Z,4.35
2023-01-13T17:08:23.367Z,3.22
2023-01-13T17:10:50.093Z,4.55
2023-01-13T17:13:17.468Z,4.55
2023-01-13T17:15:44.189Z,5.03
2023-01-13T17:18:13.353Z,4.10
2023-01-13T17:20:40.285Z,3.67
2023-01-13T17:23:07.035Z,4.00
2023-01-13T17:25:33.777Z,3.80
2023-01-13T17:28:00.483Z,3.35
2023-01-13T17:30:27.228Z,4.10
2023-01-13T17:32:53.945Z,4.32
2023-01-13T17:35:24.717Z,3.95
2023-01-13T17:37:51.655Z,3.95
2023-01-13T17:40:18.380Z,3.80
2023-01-13T17:42:45.123Z,3.72
2023-01-13T17:45:12.595Z,4.00
2023-01-13T17:47:39.394Z,3.88
2023-01-13T17:50:06.137Z,3.78
2023-01-13T17:52:32.917Z,4.25
2023-01-13T17:54:59.644Z,3.22
2023-01-13T17:57:26.351Z,3.58
2023-01-13T17:59:53.107Z,3.65
2023-01-13T18:02:19.878Z,3.80
2023-01-13T18:04:46.727Z,3.50
2023-01-13T18:07:13.393Z,3.72
2023-01-13T18:09:40.261Z,3.58
2023-01-13T18:12:07.028Z,3.17
2023-01-13T18:14:33.783Z,3.92
2023-01-13T18:17:00.618Z,4.60
2023-01-13T18:19:46.238Z,3.53
2023-01-13T18:22:31.618Z,3.45
2023-01-13T18:25:16.919Z,3.88
2023-01-13T18:27:43.640Z,4.72
2023-01-13T18:30:10.322Z,3.50
2023-01-13T18:32:37.336Z,3.80
2023-01-13T18:35:09.775Z,4.80
2023-01-13T18:37:38.704Z,3.97
2023-01-13T18:40:05.560Z,3.53
2023-01-13T18:42:51.049Z,3.45
2023-01-13T18:45:17.749Z,3.65
2023-01-13T18:47:44.412Z,3.72
2023-01-13T18:50:13.791Z,3.55
2023-01-13T18:52:40.950Z,4.85
2023-01-13T18:55:07.687Z,3.67
2023-01-13T18:57:38.268Z,3.72
2023-01-13T19:00:04.961Z,3.92
2023-01-13T19:02:31.881Z,4.20
2023-01-13T19:04:58.640Z,3.58
2023-01-13T19:07:28.597Z,4.65
2023-01-13T19:09:55.746Z,4.38
2023-01-13T19:12:31.105Z,4.78
2023-01-13T19:14:57.877Z,4.15
2023-01-13T19:17:24.612Z,4.13
2023-01-13T19:19:51.692Z,3.42
2023-01-13T19:22:19.534Z,4.20
2023-01-13T19:24:46.299Z,4.28
2023-01-13T19:27:14.467Z,3.78
2023-01-13T19:29:48.788Z,4.78
2023-01-13T19:32:19.156Z,4.22
2023-01-13T19:34:47.747Z,4.57
2023-01-13T19:37:14.568Z,4.78
2023-01-13T19:39:41.326Z,4.20
2023-01-13T19:42:34.392Z,4.28
2023-01-13T19:45:19.640Z,5.35
2023-01-13T19:47:46.409Z,4.05
2023-01-13T19:50:13.682Z,4.60
2023-01-13T19:52:40.620Z,4.20
2023-01-13T19:55:07.321Z,4.57
2023-01-13T19:57:34.045Z,3.72
2023-01-13T20:00:00.772Z,4.32
2023-01-13T20:02:28.279Z,4.70
2023-01-13T20:04:55.982Z,4.63
2023-01-13T20:07:23.711Z,4.22
2023-01-13T20:09:50.756Z,4.10
2023-01-13T20:12:17.535Z,4.53
2023-01-13T20:14:44.604Z,4.35
2023-01-13T20:17:11.258Z,5.18
2023-01-13T20:19:38.018Z,5.57
2023-01-13T20:22:04.722Z,4.60
2023-01-13T20:24:31.655Z,4.80
2023-01-13T20:26:58.443Z,4.63
2023-01-13T20:29:25.180Z,5.80
2023-01-13T20:31:51.945Z,7.38
2023-01-13T20:34:19.164Z,8.10
2023-01-13T20:36:45.974Z,6.47
2023-01-13T20:39:12.658Z,5.97
2023-01-13T20:41:58.306Z,8.80
2023-01-13T20:44:25.046Z,7.28
2023-01-13T20:46:54.474Z,13.55
2023-01-13T20:49:21.260Z,10.85
2023-01-13T20:51:47.999Z,8.95
2023-01-13T20:54:14.748Z,7.53
2023-01-13T20:56:41.472Z,6.35
2023-01-13T20:59:08.202Z,6.10
2023-01-13T21:01:34.939Z,5.10
2023-01-13T21:04:01.720Z,6.55
2023-01-13T21:06:28.479Z,5.20
2023-01-13T21:08:55.224Z,10.13
2023-01-13T21:11:45.084Z,9.38
2023-01-13T21:14:30.483Z,8.10
2023-01-13T21:16:57.224Z,6.20
2023-01-13T21:19:23.879Z,5.78
2023-01-13T21:21:50.661Z,6.18
2023-01-13T21:24:17.434Z,6.03
2023-01-13T21:26:44.147Z,6.45
2023-01-13T21:29:10.907Z,6.72
2023-01-13T21:31:37.727Z,5.70
2023-01-13T21:34:05.159Z,8.73
2023-01-13T21:36:31.984Z,7.68
2023-01-13T21:38:58.819Z,6.32
2023-01-13T21:41:44.168Z,5.45
2023-01-13T21:44:29.718Z,5.78
2023-01-13T21:47:15.124Z,6.50
2023-01-13T21:49:44.419Z,5.78
2023-01-13T21:52:11.294Z,5.53
2023-01-13T21:54:58.009Z,5.25
2023-01-13T21:57:26.715Z,5.50
2023-01-13T21:59:53.913Z,5.72
2023-01-13T22:02:32.094Z,5.45
2023-01-13T22:04:58.920Z,5.80
2023-01-13T22:07:26.587Z,5.32
2023-01-13T22:09:53.394Z,5.47
2023-01-13T22:12:23.609Z,5.80
2023-01-13T22:14:50.363Z,5.25
2023-01-13T22:17:17.789Z,5.57
2023-01-13T22:19:44.579Z,4.72
2023-01-13T22:22:14.377Z,6.35
2023-01-13T22:24:44.117Z,5.32
2023-01-13T22:27:10.837Z,4.35
2023-01-13T22:29:37.801Z,5.07
2023-01-13T22:32:04.826Z,4.65
2023-01-13T22:34:31.670Z,5.38
2023-01-13T22:36:58.415Z,4.90
2023-01-13T22:39:25.146Z,4.63
2023-01-13T22:41:51.884Z,5.10
2023-01-13T22:44:18.655Z,5.00
2023-01-13T22:46:45.371Z,4.70
2023-01-13T22:49:12.103Z,4.05
2023-01-13T22:51:38.783Z,4.18
2023-01-13T22:54:05.543Z,5.15
2023-01-13T22:56:32.227Z,4.88
2023-01-13T22:58:58.931Z,7.07
2023-01-13T23:01:25.819Z,5.70
2023-01-13T23:03:52.617Z,5.18
2023-01-13T23:06:19.410Z,4.75
2023-01-13T23:08:46.118Z,4.05
2023-01-13T23:11:12.844Z,4.65
2023-01-13T23:13:39.690Z,4.32
2023-01-13T23:16:06.765Z,4.72
2023-01-13T23:18:34.369Z,3.70
2023-01-13T23:21:01.515Z,4.63
2023-01-13T23:23:28.680Z,4.35
2023-01-13T23:25:56.789Z,4.60
2023-01-13T23:28:23.968Z,4.55
2023-01-13T23:30:51.845Z,4.90
2023-01-13T23:33:18.718Z,4.38
2023-01-13T23:35:45.563Z,4.28
2023-01-13T23:38:12.455Z,4.20
2023-01-13T23:40:39.279Z,4.47
2023-01-13T23:43:06.019Z,4.30
2023-01-13T23:45:32.766Z,4.93
2023-01-13T23:47:59.518Z,4.15
2023-01-13T23:50:26.229Z,4.50
2023-01-13T23:52:53.482Z,5.43
2023-01-13T23:55:20.211Z,4.60
2023-01-13T23:57:46.920Z,4.25
